createdAt,value
2022-08-17T00:00:34.973Z,19.38
2022-08-17T00:05:46.563Z,19.33
2022-08-17T00:10:49.827Z,19.41
2022-08-17T00:15:54.434Z,19.16
2022-08-17T00:20:57.894Z,19.14
2022-08-17T00:25:59.355Z,19.04
2022-08-17T00:31:01.105Z,19.19
2022-08-17T00:36:04.603Z,18.98
2022-08-17T00:41:13.169Z,19.05
2022-08-17T00:46:19.590Z,19.16
2022-08-17T00:51:45.962Z,19.02
2022-08-17T00:56:50.762Z,18.98
2022-08-17T01:01:52.705Z,18.70
2022-08-17T01:06:56.676Z,18.71
2022-08-17T01:11:58.573Z,18.87
2022-08-17T01:17:00.054Z,18.82
2022-08-17T01:22:06.442Z,18.79
2022-08-17T01:27:10.520Z,18.72
2022-08-17T01:32:13.017Z,18.66
2022-08-17T01:37:14.990Z,18.78
2022-08-17T01:42:26.609Z,18.65
2022-08-17T01:47:28.194Z,18.71
2022-08-17T01:52:32.698Z,18.64
2022-08-17T01:57:34.270Z,18.80
2022-08-17T02:02:35.806Z,18.74
2022-08-17T02:08:00.050Z,18.70
2022-08-17T02:12:59.425Z,18.64
2022-08-17T02:18:02.261Z,18.70
2022-08-17T02:23:04.778Z,18.42
2022-08-17T02:28:09.293Z,18.59
2022-08-17T02:33:10.805Z,18.39
2022-08-17T02:38:12.574Z,18.37
2022-08-17T02:43:14.093Z,18.31
2022-08-17T02:48:15.776Z,18.31
2022-08-17T02:53:35.882Z,18.48
2022-08-17T02:58:37.974Z,18.40
2022-08-17T03:03:40.026Z,18.55
2022-08-17T03:08:41.532Z,18.27
2022-08-17T03:13:43.018Z,18.22
2022-08-17T03:18:44.459Z,18.10
2022-08-17T03:23:45.921Z,18.29
2022-08-17T03:28:47.355Z,18.33
2022-08-17T03:33:48.860Z,18.19
2022-08-17T03:38:50.378Z,18.44
2022-08-17T03:43:52.640Z,18.19
2022-08-17T03:48:54.599Z,18.17
2022-08-17T03:53:58.671Z,18.18
2022-08-17T03:59:00.152Z,18.24
2022-08-17T04:04:01.623Z,18.14
2022-08-17T04:09:04.191Z,18.04
2022-08-17T04:14:06.887Z,18.11
2022-08-17T04:19:08.343Z,17.97
2022-08-17T04:24:09.814Z,17.99
2022-08-17T04:29:11.282Z,17.99
2022-08-17T04:34:12.719Z,18.18
2022-08-17T04:39:14.191Z,18.17
2022-08-17T04:44:15.635Z,18.04
2022-08-17T04:49:37.063Z,18.22
2022-08-17T04:54:38.523Z,18.32
2022-08-17T04:59:39.987Z,18.45
2022-08-17T05:04:41.552Z,18.51
2022-08-17T05:09:43.008Z,18.49
2022-08-17T05:14:44.483Z,18.53
2022-08-17T05:19:51.394Z,18.49
2022-08-17T05:24:55.657Z,18.43
2022-08-17T05:29:57.233Z,18.58
2022-08-17T05:34:58.744Z,18.60
2022-08-17T05:40:00.362Z,18.63
2022-08-17T05:45:02.060Z,18.69
2022-08-17T05:50:09.608Z,19.10
2022-08-17T05:55:26.880Z,19.18
2022-08-17T06:00:42.014Z,20.43
2022-08-17T06:05:58.702Z,19.87
2022-08-17T06:11:22.838Z,20.49
2022-08-17T06:16:34.435Z,20.64
2022-08-17T06:21:41.350Z,20.42
2022-08-17T06:26:44.508Z,20.53
2022-08-17T06:31:46.233Z,20.87
2022-08-17T06:37:00.953Z,20.87
2022-08-17T06:42:59.920Z,20.63
2022-08-17T06:47:52.256Z,20.85
2022-08-17T06:53:04.088Z,20.94
2022-08-17T06:58:15.813Z,20.81
2022-08-17T07:03:39.885Z,20.73
2022-08-17T07:09:01.399Z,20.68
2022-08-17T07:14:38.096Z,20.70
2022-08-17T07:19:42.248Z,20.64
2022-08-17T07:24:48.882Z,20.82
2022-08-17T07:30:20.817Z,20.85
2022-08-17T07:35:40.653Z,20.90
2022-08-17T07:40:54.561Z,20.99
2022-08-17T07:46:02.420Z,21.05
2022-08-17T07:51:19.177Z,21.26
2022-08-17T07:56:56.010Z,21.93
2022-08-17T08:01:57.838Z,22.23
2022-08-17T08:07:01.849Z,22.14
2022-08-17T08:12:23.939Z,22.62
2022-08-17T08:17:34.760Z,22.72
2022-08-17T08:23:02.943Z,22.69
2022-08-17T08:28:25.703Z,22.66
2022-08-17T08:33:34.728Z,22.97
2022-08-17T08:38:48.872Z,22.87
2022-08-17T08:44:13.756Z,22.82
2022-08-17T08:49:29.826Z,22.93
2022-08-17T08:54:56.604Z,22.83
2022-08-17T09:00:20.075Z,22.60
2022-08-17T09:05:44.090Z,23.04
2022-08-17T09:11:09.181Z,23.27
2022-08-17T09:16:30.547Z,23.54
2022-08-17T09:21:53.762Z,23.72
2022-08-17T09:27:04.971Z,24.17
2022-08-17T09:32:36.722Z,24.47
2022-08-17T09:37:53.216Z,23.82
2022-08-17T09:43:03.990Z,24.02
2022-08-17T09:48:18.765Z,23.75
2022-08-17T09:53:20.246Z,23.79
2022-08-17T09:58:44.560Z,23.85
2022-08-17T10:03:51.869Z,24.02
2022-08-17T10:09:08.602Z,23.92
2022-08-17T10:14:37.412Z,23.72
2022-08-17T10:20:20.208Z,23.66
2022-08-17T10:25:30.088Z,23.66
2022-08-17T10:30:49.164Z,23.74
2022-08-17T10:36:06.363Z,24.25
2022-08-17T10:41:22.038Z,24.73
2022-08-17T10:46:31.198Z,24.98
2022-08-17T10:51:37.462Z,25.39
2022-08-17T10:56:45.392Z,26.35
2022-08-17T11:02:02.456Z,26.35
2022-08-17T11:07:34.383Z,26.52
2022-08-17T11:12:59.786Z,26.16
2022-08-17T11:18:18.840Z,26.40
2022-08-17T11:23:52.140Z,26.49
2022-08-17T11:28:58.938Z,26.33
2022-08-17T11:34:03.026Z,26.52
2022-08-17T11:39:33.940Z,26.22
2022-08-17T11:44:52.382Z,26.73
2022-08-17T11:50:16.121Z,26.81
2022-08-17T11:55:35.812Z,26.67
2022-08-17T12:00:45.957Z,26.91
2022-08-17T12:05:48.121Z,26.92
2022-08-17T12:10:56.510Z,26.80
2022-08-17T12:15:58.653Z,26.77
2022-08-17T12:21:13.858Z,26.98
2022-08-17T12:26:19.190Z,27.54
2022-08-17T12:31:25.978Z,27.54
2022-08-17T12:36:28.871Z,27.29
2022-08-17T12:41:31.905Z,27.29
2022-08-17T12:46:46.370Z,27.13
2022-08-17T12:51:48.449Z,27.21
2022-08-17T12:56:49.950Z,26.95
2022-08-17T13:01:51.540Z,27.20
2022-08-17T13:06:59.640Z,27.08
2022-08-17T13:12:01.777Z,26.68
2022-08-17T13:17:05.424Z,26.80
2022-08-17T13:22:11.822Z,27.02
2022-08-17T13:27:13.581Z,27.46
2022-08-17T13:32:19.891Z,27.19
2022-08-17T13:37:24.258Z,26.88
2022-08-17T13:42:51.741Z,27.02
2022-08-17T13:48:16.763Z,27.05
2022-08-17T13:53:46.854Z,27.12
2022-08-17T13:58:57.062Z,27.01
2022-08-17T14:04:01.185Z,27.43
2022-08-17T14:09:03.664Z,27.76
2022-08-17T14:14:05.174Z,27.47
2022-08-17T14:19:06.623Z,27.54
2022-08-17T14:24:11.073Z,27.42
2022-08-17T14:29:14.891Z,27.90
2022-08-17T14:34:17.214Z,27.62
2022-08-17T14:39:20.258Z,27.46
2022-08-17T14:44:21.698Z,27.96
2022-08-17T14:49:23.130Z,27.81
2022-08-17T14:54:33.026Z,27.71
2022-08-17T14:59:36.062Z,27.58
2022-08-17T15:04:39.850Z,27.12
2022-08-17T15:09:44.908Z,27.43
2022-08-17T15:14:46.393Z,27.63
2022-08-17T15:19:47.867Z,27.67
2022-08-17T15:24:49.538Z,27.44
2022-08-17T15:29:51.037Z,27.49
2022-08-17T15:34:55.201Z,27.23
2022-08-17T15:39:56.742Z,26.97
2022-08-17T15:44:58.302Z,27.13
2022-08-17T15:50:00.401Z,27.04
2022-08-17T15:55:02.051Z,27.09
2022-08-17T16:00:06.030Z,27.17
2022-08-17T16:05:13.322Z,27.03
2022-08-17T16:10:19.052Z,26.73
2022-08-17T16:15:20.981Z,26.44
2022-08-17T16:20:22.545Z,26.62
2022-08-17T16:25:47.230Z,26.46
2022-08-17T16:30:49.190Z,26.16
2022-08-17T16:35:50.618Z,25.85
2022-08-17T16:40:52.073Z,25.65
2022-08-17T16:45:53.627Z,25.58
2022-08-17T16:51:03.080Z,25.61
2022-08-17T16:56:05.342Z,25.60
2022-08-17T17:01:06.933Z,25.55
2022-08-17T17:06:14.587Z,25.46
2022-08-17T17:11:24.919Z,25.36
2022-08-17T17:16:35.583Z,25.15
2022-08-17T17:21:56.614Z,25.04
2022-08-17T17:27:12.753Z,24.88
2022-08-17T17:32:24.819Z,24.84
2022-08-17T17:37:32.340Z,24.80
2022-08-17T17:42:34.074Z,24.85
2022-08-17T17:47:36.401Z,24.90
2022-08-17T17:52:46.557Z,24.80
2022-08-17T17:58:11.318Z,24.80
2022-08-17T18:03:20.150Z,24.82
2022-08-17T18:08:43.014Z,24.72
2022-08-17T18:13:56.446Z,24.53
2022-08-17T18:18:58.557Z,24.52
2022-08-17T18:24:02.125Z,24.50
2022-08-17T18:29:23.401Z,24.52
2022-08-17T18:34:46.446Z,24.24
2022-08-17T18:39:49.013Z,24.15
2022-08-17T18:44:54.854Z,23.94
2022-08-17T18:50:18.703Z,23.80
2022-08-17T18:55:25.530Z,23.84
2022-08-17T19:00:42.063Z,23.70
2022-08-17T19:05:47.140Z,23.57
2022-08-17T19:10:56.074Z,23.48
2022-08-17T19:16:14.586Z,23.38
2022-08-17T19:21:25.177Z,23.29
2022-08-17T19:26:54.502Z,23.11
2022-08-17T19:31:52.970Z,22.93
2022-08-17T19:37:24.535Z,22.87
2022-08-17T19:42:40.912Z,22.82
2022-08-17T19:48:16.259Z,22.70
2022-08-17T19:53:23.031Z,22.64
2022-08-17T19:58:59.217Z,22.54
2022-08-17T20:04:14.261Z,22.53
2022-08-17T20:09:29.661Z,22.48
2022-08-17T20:14:53.663Z,22.38
2022-08-17T20:20:06.591Z,22.32
2022-08-17T20:25:17.610Z,22.28
2022-08-17T20:30:36.545Z,22.16
2022-08-17T20:35:39.690Z,22.13
2022-08-17T20:40:56.411Z,22.08
2022-08-17T20:46:16.007Z,22.07
2022-08-17T20:51:28.999Z,22.04
2022-08-17T20:56:42.685Z,21.92
2022-08-17T21:02:17.478Z,21.93
2022-08-17T21:07:33.063Z,21.86
2022-08-17T21:12:53.042Z,21.81
2022-08-17T21:18:13.072Z,21.82
2022-08-17T21:23:20.549Z,21.85
2022-08-17T21:28:36.024Z,21.70
2022-08-17T21:34:15.666Z,21.44
2022-08-17T21:39:21.454Z,21.54
2022-08-17T21:44:35.158Z,21.41
2022-08-17T21:49:38.018Z,21.40
2022-08-17T21:54:47.802Z,21.47
2022-08-17T21:59:56.303Z,21.51
2022-08-17T22:05:06.560Z,21.45
2022-08-17T22:10:32.186Z,21.51
2022-08-17T22:15:38.152Z,21.32
2022-08-17T22:20:41.352Z,21.14
2022-08-17T22:26:00.237Z,21.11
2022-08-17T22:31:03.808Z,21.01
2022-08-17T22:36:14.136Z,20.92
2022-08-17T22:41:32.714Z,20.90
2022-08-17T22:46:39.896Z,21.01
2022-08-17T22:51:42.505Z,20.86
2022-08-17T22:56:52.886Z,20.99
2022-08-17T23:02:24.225Z,20.82
2022-08-17T23:07:25.735Z,20.93
2022-08-17T23:12:27.289Z,20.76
2022-08-17T23:17:36.446Z,20.83
2022-08-17T23:22:51.811Z,20.61
2022-08-17T23:27:55.523Z,20.63
2022-08-17T23:33:02.369Z,20.54
2022-08-17T23:38:04.045Z,20.33
2022-08-17T23:49:08.288Z,20.28
2022-08-17T23:54:26.770Z,20.40
2022-08-17T23:59:28.728Z,20.61
